To NAV CANADA Home Page Login to a new session Search on AWWS site Feedback and Comments Disclaimer Vers la page française équivalente Tips FAQ What's new on the site To the Forecasts and Observations / NOTAM section To "File a Flight Plan" website Publications and other links Update of the User's profile FIC Telephone Numbers My Weather Data Folder Route Weather Data Regional Weather Data Local Weather Data To the Forecasts and Observations / NOTAM section
Request Generated 05/27/2015 at 21:32:50 UTC . Weather information available at that time is displayed.

METAR/TAF

LA GRANDE-4/QC    (show WxCam)

METAR CYAH 272100Z AUTO 25008KT 9SM CLR 16/11 A2959 RMK SLP028
DENSITY ALT 1700FT=
SPECI CYAH 272009Z AUTO 22008KT 9SM SCT018 16/11 A2958 RMK SLP028
DENSITY ALT 1700FT=
METAR CYAH 272000Z AUTO 23007KT 9SM BKN018 16/11 A2959 RMK SLP029
DENSITY ALT 1600FT=
METAR CYAH 271900Z AUTO 26006KT 9SM OVC014 15/11 A2960 RMK SLP033
DENSITY ALT 1500FT=

*** REMARK        : Forecast period has ended; this was the last TAF issued
*** REMARQUE : La période de prévision est échue; ceci était le dernier TAF qui a été émis
TAF CYAH 271738Z 2718/2721 19008KT P6SM SCT012 OVC030 TEMPO 2718/2720
3SM -RA BR BKN008 OVC020
FM272000 30012KT P6SM OVC030 TEMPO 2720/2721 5SM -SHRA BR BKN020
RMK FCST BASED ON AUTO OBS. NXT FCST WILL BE ISSUED AT 281045Z=
Your time UTC time
Weather data provided by Environment Canada and NAV CANADA